sensor_id;sensor_type;location;lat;lon;timestamp;P1;durP1;ratioP1;P2;durP2;ratioP2
39750;SDS011;37579;51.074;17.004;2022-11-15T00:00:33;9.90;;;7.25;;
39750;SDS011;37579;51.074;17.004;2022-11-15T00:03:19;12.07;;;7.60;;
39750;SDS011;37579;51.074;17.004;2022-11-15T00:06:05;8.90;;;6.95;;
39750;SDS011;37579;51.074;17.004;2022-11-15T00:08:49;10.85;;;7.45;;
39750;SDS011;37579;51.074;17.004;2022-11-15T00:11:33;9.13;;;7.45;;
39750;SDS011;37579;51.074;17.004;2022-11-15T00:14:17;10.80;;;7.45;;
39750;SDS011;37579;51.074;17.004;2022-11-15T00:17:01;10.02;;;7.85;;
39750;SDS011;37579;51.074;17.004;2022-11-15T00:19:46;9.48;;;7.72;;
39750;SDS011;37579;51.074;17.004;2022-11-15T00:22:33;9.77;;;7.88;;
39750;SDS011;37579;51.074;17.004;2022-11-15T00:25:17;9.10;;;7.18;;
39750;SDS011;37579;51.074;17.004;2022-11-15T00:28:02;10.13;;;8.07;;
39750;SDS011;37579;51.074;17.004;2022-11-15T00:30:46;9.43;;;8.00;;
39750;SDS011;37579;51.074;17.004;2022-11-15T00:33:30;9.43;;;7.72;;
39750;SDS011;37579;51.074;17.004;2022-11-15T00:36:15;9.13;;;7.55;;
39750;SDS011;37579;51.074;17.004;2022-11-15T00:39:00;8.73;;;7.25;;
39750;SDS011;37579;51.074;17.004;2022-11-15T00:41:44;9.25;;;7.03;;
39750;SDS011;37579;51.074;17.004;2022-11-15T00:44:28;11.45;;;7.65;;
39750;SDS011;37579;51.074;17.004;2022-11-15T00:47:12;9.55;;;8.00;;
39750;SDS011;37579;51.074;17.004;2022-11-15T00:49:56;9.70;;;7.80;;
39750;SDS011;37579;51.074;17.004;2022-11-15T00:52:41;9.95;;;8.07;;
39750;SDS011;37579;51.074;17.004;2022-11-15T00:55:26;10.43;;;7.85;;
39750;SDS011;37579;51.074;17.004;2022-11-15T00:58:10;10.95;;;8.32;;
39750;SDS011;37579;51.074;17.004;2022-11-15T01:00:54;9.32;;;7.43;;
39750;SDS011;37579;51.074;17.004;2022-11-15T01:03:39;10.30;;;7.80;;
39750;SDS011;37579;51.074;17.004;2022-11-15T01:06:24;8.30;;;7.35;;
39750;SDS011;37579;51.074;17.004;2022-11-15T01:09:08;10.13;;;8.10;;
39750;SDS011;37579;51.074;17.004;2022-11-15T01:11:52;10.00;;;7.70;;
39750;SDS011;37579;51.074;17.004;2022-11-15T01:14:36;8.88;;;7.13;;
39750;SDS011;37579;51.074;17.004;2022-11-15T01:17:20;8.88;;;7.43;;
39750;SDS011;37579;51.074;17.004;2022-11-15T01:20:05;9.35;;;7.75;;
39750;SDS011;37579;51.074;17.004;2022-11-15T01:22:50;9.48;;;7.82;;
39750;SDS011;37579;51.074;17.004;2022-11-15T01:25:34;9.63;;;7.22;;
39750;SDS011;37579;51.074;17.004;2022-11-15T01:28:19;9.27;;;7.53;;
39750;SDS011;37579;51.074;17.004;2022-11-15T01:31:04;9.82;;;7.65;;
39750;SDS011;37579;51.074;17.004;2022-11-15T01:33:50;9.88;;;7.72;;
39750;SDS011;37579;51.074;17.004;2022-11-15T01:36:34;8.20;;;6.93;;
39750;SDS011;37579;51.074;17.004;2022-11-15T01:39:18;9.25;;;7.35;;
39750;SDS011;37579;51.074;17.004;2022-11-15T01:42:02;9.75;;;8.07;;
39750;SDS011;37579;51.074;17.004;2022-11-15T01:44:48;10.00;;;8.13;;
39750;SDS011;37579;51.074;17.004;2022-11-15T01:47:38;9.57;;;7.90;;
39750;SDS011;37579;51.074;17.004;2022-11-15T01:50:28;9.20;;;7.60;;
39750;SDS011;37579;51.074;17.004;2022-11-15T01:53:15;9.20;;;7.93;;
39750;SDS011;37579;51.074;17.004;2022-11-15T01:56:02;9.80;;;7.82;;
39750;SDS011;37579;51.074;17.004;2022-11-15T01:58:50;10.32;;;7.72;;
39750;SDS011;37579;51.074;17.004;2022-11-15T02:01:35;8.93;;;7.65;;
39750;SDS011;37579;51.074;17.004;2022-11-15T02:04:22;10.55;;;7.90;;
39750;SDS011;37579;51.074;17.004;2022-11-15T02:07:28;8.55;;;7.70;;
39750;SDS011;37579;51.074;17.004;2022-11-15T02:10:18;9.73;;;7.93;;
39750;SDS011;37579;51.074;17.004;2022-11-15T02:13:04;8.85;;;7.32;;
39750;SDS011;37579;51.074;17.004;2022-11-15T02:16:35;9.25;;;7.85;;
39750;SDS011;37579;51.074;17.004;2022-11-15T02:19:02;11.18;;;8.27;;
39750;SDS011;37579;51.074;17.004;2022-11-15T02:37:25;10.27;;;8.18;;
39750;SDS011;37579;51.074;17.004;2022-11-15T02:40:52;10.52;;;8.15;;
39750;SDS011;37579;51.074;17.004;2022-11-15T02:43:43;9.73;;;7.43;;
39750;SDS011;37579;51.074;17.004;2022-11-15T02:48:19;8.75;;;7.65;;
39750;SDS011;37579;51.074;17.004;2022-11-15T02:51:06;10.65;;;8.35;;
39750;SDS011;37579;51.074;17.004;2022-11-15T02:53:50;9.80;;;7.78;;
39750;SDS011;37579;51.074;17.004;2022-11-15T02:56:34;9.63;;;7.70;;
39750;SDS011;37579;51.074;17.004;2022-11-15T02:59:22;10.60;;;7.68;;
39750;SDS011;37579;51.074;17.004;2022-11-15T03:02:15;9.90;;;7.85;;
39750;SDS011;37579;51.074;17.004;2022-11-15T03:12:12;10.25;;;8.15;;
39750;SDS011;37579;51.074;17.004;2022-11-15T03:18:12;9.45;;;8.27;;
39750;SDS011;37579;51.074;17.004;2022-11-15T03:21:04;10.07;;;8.10;;
39750;SDS011;37579;51.074;17.004;2022-11-15T03:23:51;9.55;;;8.15;;
39750;SDS011;37579;51.074;17.004;2022-11-15T03:26:38;10.63;;;8.40;;
39750;SDS011;37579;51.074;17.004;2022-11-15T03:29:28;9.63;;;7.70;;
39750;SDS011;37579;51.074;17.004;2022-11-15T03:32:41;9.68;;;8.40;;
39750;SDS011;37579;51.074;17.004;2022-11-15T03:35:27;9.75;;;8.07;;
39750;SDS011;37579;51.074;17.004;2022-11-15T03:38:19;10.30;;;8.18;;
39750;SDS011;37579;51.074;17.004;2022-11-15T03:41:08;10.38;;;8.45;;
39750;SDS011;37579;51.074;17.004;2022-11-15T03:47:29;10.02;;;8.10;;
39750;SDS011;37579;51.074;17.004;2022-11-15T03:50:23;9.75;;;7.97;;
39750;SDS011;37579;51.074;17.004;2022-11-15T03:53:09;10.90;;;7.75;;
39750;SDS011;37579;51.074;17.004;2022-11-15T03:55:54;10.95;;;8.30;;
39750;SDS011;37579;51.074;17.004;2022-11-15T03:58:38;9.80;;;8.07;;
39750;SDS011;37579;51.074;17.004;2022-11-15T04:01:22;9.77;;;7.82;;
39750;SDS011;37579;51.074;17.004;2022-11-15T04:04:06;11.00;;;8.10;;
39750;SDS011;37579;51.074;17.004;2022-11-15T04:06:50;9.30;;;8.02;;
39750;SDS011;37579;51.074;17.004;2022-11-15T04:09:34;9.35;;;8.07;;
39750;SDS011;37579;51.074;17.004;2022-11-15T04:12:39;10.25;;;8.30;;
39750;SDS011;37579;51.074;17.004;2022-11-15T04:15:26;9.02;;;7.75;;
39750;SDS011;37579;51.074;17.004;2022-11-15T04:18:12;9.15;;;7.93;;
39750;SDS011;37579;51.074;17.004;2022-11-15T04:20:56;9.68;;;8.20;;
39750;SDS011;37579;51.074;17.004;2022-11-15T04:23:59;10.07;;;7.97;;
39750;SDS011;37579;51.074;17.004;2022-11-15T04:26:56;9.27;;;8.00;;
39750;SDS011;37579;51.074;17.004;2022-11-15T04:29:40;9.73;;;7.57;;
39750;SDS011;37579;51.074;17.004;2022-11-15T04:32:24;11.07;;;8.55;;
39750;SDS011;37579;51.074;17.004;2022-11-15T04:35:08;9.43;;;8.10;;
39750;SDS011;37579;51.074;17.004;2022-11-15T04:37:53;9.15;;;8.02;;
39750;SDS011;37579;51.074;17.004;2022-11-15T04:40:37;9.57;;;7.55;;
39750;SDS011;37579;51.074;17.004;2022-11-15T04:43:22;9.88;;;8.52;;
39750;SDS011;37579;51.074;17.004;2022-11-15T04:46:06;9.57;;;8.23;;
39750;SDS011;37579;51.074;17.004;2022-11-15T04:48:50;9.80;;;7.95;;
39750;SDS011;37579;51.074;17.004;2022-11-15T04:51:35;10.10;;;8.32;;
39750;SDS011;37579;51.074;17.004;2022-11-15T04:54:20;11.82;;;8.90;;
39750;SDS011;37579;51.074;17.004;2022-11-15T04:57:04;8.80;;;7.53;;
39750;SDS011;37579;51.074;17.004;2022-11-15T04:59:48;9.52;;;8.07;;
39750;SDS011;37579;51.074;17.004;2022-11-15T05:02:32;9.90;;;8.15;;
39750;SDS011;37579;51.074;17.004;2022-11-15T05:05:35;10.07;;;8.13;;
39750;SDS011;37579;51.074;17.004;2022-11-15T05:08:20;10.05;;;8.50;;
39750;SDS011;37579;51.074;17.004;2022-11-15T05:11:04;10.18;;;8.15;;
39750;SDS011;37579;51.074;17.004;2022-11-15T05:13:48;10.38;;;8.32;;
39750;SDS011;37579;51.074;17.004;2022-11-15T05:16:33;8.95;;;8.05;;
39750;SDS011;37579;51.074;17.004;2022-11-15T05:19:17;11.02;;;7.95;;
39750;SDS011;37579;51.074;17.004;2022-11-15T05:22:01;9.80;;;8.15;;
39750;SDS011;37579;51.074;17.004;2022-11-15T05:24:45;10.20;;;8.35;;
39750;SDS011;37579;51.074;17.004;2022-11-15T05:27:29;10.50;;;8.68;;
39750;SDS011;37579;51.074;17.004;2022-11-15T05:30:14;8.95;;;7.72;;
39750;SDS011;37579;51.074;17.004;2022-11-15T05:32:59;9.05;;;7.75;;
39750;SDS011;37579;51.074;17.004;2022-11-15T05:35:46;9.93;;;8.10;;
39750;SDS011;37579;51.074;17.004;2022-11-15T05:38:36;9.88;;;8.35;;
39750;SDS011;37579;51.074;17.004;2022-11-15T05:41:22;9.80;;;8.07;;
39750;SDS011;37579;51.074;17.004;2022-11-15T05:44:30;9.05;;;7.63;;
39750;SDS011;37579;51.074;17.004;2022-11-15T05:47:22;9.70;;;7.78;;
39750;SDS011;37579;51.074;17.004;2022-11-15T05:50:11;8.93;;;7.72;;
39750;SDS011;37579;51.074;17.004;2022-11-15T05:52:57;10.73;;;7.90;;
39750;SDS011;37579;51.074;17.004;2022-11-15T05:55:42;9.95;;;8.23;;
39750;SDS011;37579;51.074;17.004;2022-11-15T05:58:27;10.27;;;8.05;;
39750;SDS011;37579;51.074;17.004;2022-11-15T06:01:11;11.25;;;8.20;;
39750;SDS011;37579;51.074;17.004;2022-11-15T06:03:55;10.35;;;8.15;;
39750;SDS011;37579;51.074;17.004;2022-11-15T06:06:39;9.25;;;7.75;;
39750;SDS011;37579;51.074;17.004;2022-11-15T06:09:23;10.68;;;7.93;;
39750;SDS011;37579;51.074;17.004;2022-11-15T06:12:08;9.20;;;8.07;;
39750;SDS011;37579;51.074;17.004;2022-11-15T06:14:52;9.38;;;7.78;;
39750;SDS011;37579;51.074;17.004;2022-11-15T06:17:36;9.77;;;7.07;;
39750;SDS011;37579;51.074;17.004;2022-11-15T06:20:20;10.32;;;8.02;;
39750;SDS011;37579;51.074;17.004;2022-11-15T06:23:04;10.38;;;8.35;;
39750;SDS011;37579;51.074;17.004;2022-11-15T06:25:49;9.75;;;8.02;;
39750;SDS011;37579;51.074;17.004;2022-11-15T06:28:33;9.25;;;8.07;;
39750;SDS011;37579;51.074;17.004;2022-11-15T06:31:17;13.90;;;7.55;;
39750;SDS011;37579;51.074;17.004;2022-11-15T06:34:01;11.52;;;7.97;;
39750;SDS011;37579;51.074;17.004;2022-11-15T06:36:45;9.50;;;7.30;;
39750;SDS011;37579;51.074;17.004;2022-11-15T06:39:29;9.82;;;7.90;;
39750;SDS011;37579;51.074;17.004;2022-11-15T06:42:14;12.63;;;8.23;;
39750;SDS011;37579;51.074;17.004;2022-11-15T06:44:57;12.70;;;8.50;;
39750;SDS011;37579;51.074;17.004;2022-11-15T06:47:45;10.25;;;8.27;;
39750;SDS011;37579;51.074;17.004;2022-11-15T06:50:30;10.35;;;8.00;;
39750;SDS011;37579;51.074;17.004;2022-11-15T06:53:14;10.40;;;8.18;;
39750;SDS011;37579;51.074;17.004;2022-11-15T06:55:59;12.60;;;8.30;;
39750;SDS011;37579;51.074;17.004;2022-11-15T06:58:45;12.80;;;8.45;;
39750;SDS011;37579;51.074;17.004;2022-11-15T07:01:29;12.77;;;9.07;;
39750;SDS011;37579;51.074;17.004;2022-11-15T07:04:13;11.82;;;8.45;;
39750;SDS011;37579;51.074;17.004;2022-11-15T07:06:57;13.75;;;8.80;;
39750;SDS011;37579;51.074;17.004;2022-11-15T07:09:41;13.95;;;9.57;;
39750;SDS011;37579;51.074;17.004;2022-11-15T07:12:25;12.18;;;8.88;;
39750;SDS011;37579;51.074;17.004;2022-11-15T07:15:09;11.25;;;8.80;;
39750;SDS011;37579;51.074;17.004;2022-11-15T07:17:53;11.35;;;8.93;;
39750;SDS011;37579;51.074;17.004;2022-11-15T07:20:37;12.38;;;8.82;;
39750;SDS011;37579;51.074;17.004;2022-11-15T07:23:23;13.90;;;8.90;;
39750;SDS011;37579;51.074;17.004;2022-11-15T07:26:07;12.55;;;8.88;;
39750;SDS011;37579;51.074;17.004;2022-11-15T07:28:52;11.30;;;9.05;;
39750;SDS011;37579;51.074;17.004;2022-11-15T07:31:36;11.45;;;8.85;;
39750;SDS011;37579;51.074;17.004;2022-11-15T07:34:21;11.65;;;8.82;;
39750;SDS011;37579;51.074;17.004;2022-11-15T07:37:07;11.50;;;8.52;;
39750;SDS011;37579;51.074;17.004;2022-11-15T07:39:51;12.90;;;8.95;;
39750;SDS011;37579;51.074;17.004;2022-11-15T07:42:35;12.98;;;9.13;;
39750;SDS011;37579;51.074;17.004;2022-11-15T07:45:40;12.18;;;9.05;;
39750;SDS011;37579;51.074;17.004;2022-11-15T07:48:26;12.35;;;8.80;;
39750;SDS011;37579;51.074;17.004;2022-11-15T07:51:14;11.02;;;8.85;;
39750;SDS011;37579;51.074;17.004;2022-11-15T07:53:59;11.75;;;8.60;;
39750;SDS011;37579;51.074;17.004;2022-11-15T07:56:44;15.55;;;9.18;;
39750;SDS011;37579;51.074;17.004;2022-11-15T07:59:28;12.05;;;8.73;;
39750;SDS011;37579;51.074;17.004;2022-11-15T08:02:12;11.68;;;9.30;;
39750;SDS011;37579;51.074;17.004;2022-11-15T08:04:56;14.18;;;8.68;;
39750;SDS011;37579;51.074;17.004;2022-11-15T08:07:40;13.52;;;9.18;;
39750;SDS011;37579;51.074;17.004;2022-11-15T08:10:26;10.68;;;9.15;;
39750;SDS011;37579;51.074;17.004;2022-11-15T08:13:11;13.43;;;9.18;;
39750;SDS011;37579;51.074;17.004;2022-11-15T08:15:59;14.27;;;9.70;;
39750;SDS011;37579;51.074;17.004;2022-11-15T08:18:45;12.30;;;9.38;;
39750;SDS011;37579;51.074;17.004;2022-11-15T08:21:29;11.93;;;9.52;;
39750;SDS011;37579;51.074;17.004;2022-11-15T08:24:14;11.00;;;9.10;;
39750;SDS011;37579;51.074;17.004;2022-11-15T08:26:59;11.77;;;9.15;;
39750;SDS011;37579;51.074;17.004;2022-11-15T08:29:44;11.10;;;9.27;;
39750;SDS011;37579;51.074;17.004;2022-11-15T08:32:28;11.23;;;9.05;;
39750;SDS011;37579;51.074;17.004;2022-11-15T08:35:14;12.60;;;8.60;;
39750;SDS011;37579;51.074;17.004;2022-11-15T08:37:58;11.50;;;9.10;;
39750;SDS011;37579;51.074;17.004;2022-11-15T08:40:42;11.98;;;9.13;;
39750;SDS011;37579;51.074;17.004;2022-11-15T08:43:26;11.60;;;9.13;;
39750;SDS011;37579;51.074;17.004;2022-11-15T08:46:11;11.02;;;9.02;;
39750;SDS011;37579;51.074;17.004;2022-11-15T08:48:57;13.82;;;9.30;;
39750;SDS011;37579;51.074;17.004;2022-11-15T08:51:41;14.90;;;9.13;;
39750;SDS011;37579;51.074;17.004;2022-11-15T08:54:26;15.38;;;10.20;;
39750;SDS011;37579;51.074;17.004;2022-11-15T08:57:10;13.20;;;10.38;;
39750;SDS011;37579;51.074;17.004;2022-11-15T08:59:54;15.25;;;10.55;;
39750;SDS011;37579;51.074;17.004;2022-11-15T09:02:39;16.17;;;9.77;;
39750;SDS011;37579;51.074;17.004;2022-11-15T09:05:23;14.82;;;10.40;;
39750;SDS011;37579;51.074;17.004;2022-11-15T09:08:07;16.95;;;10.38;;
39750;SDS011;37579;51.074;17.004;2022-11-15T09:10:51;14.07;;;10.68;;
39750;SDS011;37579;51.074;17.004;2022-11-15T09:13:36;14.57;;;9.73;;
39750;SDS011;37579;51.074;17.004;2022-11-15T09:16:21;17.73;;;10.70;;
39750;SDS011;37579;51.074;17.004;2022-11-15T09:19:05;11.85;;;9.30;;
39750;SDS011;37579;51.074;17.004;2022-11-15T09:21:49;13.35;;;10.18;;
39750;SDS011;37579;51.074;17.004;2022-11-15T09:24:34;17.05;;;11.10;;
39750;SDS011;37579;51.074;17.004;2022-11-15T09:27:18;13.48;;;9.93;;
39750;SDS011;37579;51.074;17.004;2022-11-15T09:30:03;14.73;;;9.82;;
39750;SDS011;37579;51.074;17.004;2022-11-15T09:32:47;17.50;;;10.82;;
39750;SDS011;37579;51.074;17.004;2022-11-15T09:35:32;13.05;;;9.70;;
39750;SDS011;37579;51.074;17.004;2022-11-15T09:38:16;12.52;;;9.85;;
39750;SDS011;37579;51.074;17.004;2022-11-15T09:49:40;14.25;;;9.93;;
39750;SDS011;37579;51.074;17.004;2022-11-15T09:52:28;13.23;;;9.80;;
39750;SDS011;37579;51.074;17.004;2022-11-15T09:54:54;12.38;;;9.65;;
39750;SDS011;37579;51.074;17.004;2022-11-15T09:57:21;15.88;;;10.52;;
39750;SDS011;37579;51.074;17.004;2022-11-15T10:03:14;14.38;;;9.90;;
39750;SDS011;37579;51.074;17.004;2022-11-15T10:05:45;14.93;;;10.50;;
39750;SDS011;37579;51.074;17.004;2022-11-15T10:08:28;15.18;;;10.52;;
39750;SDS011;37579;51.074;17.004;2022-11-15T10:11:19;12.35;;;9.00;;
39750;SDS011;37579;51.074;17.004;2022-11-15T10:13:49;20.08;;;8.75;;
39750;SDS011;37579;51.074;17.004;2022-11-15T10:19:07;11.50;;;8.93;;
39750;SDS011;37579;51.074;17.004;2022-11-15T10:24:42;14.38;;;9.18;;
39750;SDS011;37579;51.074;17.004;2022-11-15T10:27:10;17.30;;;10.20;;
39750;SDS011;37579;51.074;17.004;2022-11-15T10:29:47;13.02;;;8.82;;
39750;SDS011;37579;51.074;17.004;2022-11-15T10:32:16;12.82;;;9.30;;
39750;SDS011;37579;51.074;17.004;2022-11-15T10:34:44;13.90;;;8.85;;
39750;SDS011;37579;51.074;17.004;2022-11-15T10:37:10;12.07;;;8.70;;
39750;SDS011;37579;51.074;17.004;2022-11-15T10:39:36;10.68;;;7.97;;
39750;SDS011;37579;51.074;17.004;2022-11-15T10:42:14;11.95;;;8.30;;
39750;SDS011;37579;51.074;17.004;2022-11-15T10:44:43;11.82;;;8.63;;
39750;SDS011;37579;51.074;17.004;2022-11-15T10:47:43;11.40;;;8.45;;
39750;SDS011;37579;51.074;17.004;2022-11-15T10:50:06;12.00;;;8.38;;
39750;SDS011;37579;51.074;17.004;2022-11-15T10:52:51;11.07;;;8.70;;
39750;SDS011;37579;51.074;17.004;2022-11-15T10:57:48;11.82;;;8.82;;
39750;SDS011;37579;51.074;17.004;2022-11-15T11:03:08;10.13;;;8.02;;
39750;SDS011;37579;51.074;17.004;2022-11-15T11:05:46;10.60;;;8.30;;
39750;SDS011;37579;51.074;17.004;2022-11-15T11:10:57;12.68;;;9.00;;
39750;SDS011;37579;51.074;17.004;2022-11-15T11:13:27;11.50;;;8.10;;
39750;SDS011;37579;51.074;17.004;2022-11-15T11:24:34;12.80;;;8.23;;
39750;SDS011;37579;51.074;17.004;2022-11-15T11:30:08;11.70;;;7.93;;
39750;SDS011;37579;51.074;17.004;2022-11-15T11:32:42;12.45;;;8.48;;
39750;SDS011;37579;51.074;17.004;2022-11-15T11:41:09;12.27;;;8.65;;
39750;SDS011;37579;51.074;17.004;2022-11-15T11:49:15;13.57;;;8.07;;
39750;SDS011;37579;51.074;17.004;2022-11-15T12:03:07;15.52;;;8.88;;
39750;SDS011;37579;51.074;17.004;2022-11-15T12:05:35;12.35;;;9.23;;
39750;SDS011;37579;51.074;17.004;2022-11-15T12:13:42;11.40;;;9.15;;
39750;SDS011;37579;51.074;17.004;2022-11-15T12:18:38;16.85;;;8.90;;
39750;SDS011;37579;51.074;17.004;2022-11-15T12:21:17;12.45;;;9.40;;
39750;SDS011;37579;51.074;17.004;2022-11-15T12:23:49;12.77;;;8.88;;
39750;SDS011;37579;51.074;17.004;2022-11-15T12:26:25;11.52;;;9.50;;
39750;SDS011;37579;51.074;17.004;2022-11-15T12:28:58;15.32;;;9.50;;
39750;SDS011;37579;51.074;17.004;2022-11-15T12:31:35;13.23;;;9.48;;
39750;SDS011;37579;51.074;17.004;2022-11-15T12:34:13;13.23;;;9.82;;
39750;SDS011;37579;51.074;17.004;2022-11-15T12:36:47;16.23;;;9.93;;
39750;SDS011;37579;51.074;17.004;2022-11-15T12:39:15;15.27;;;10.32;;
39750;SDS011;37579;51.074;17.004;2022-11-15T12:41:42;14.07;;;9.15;;
39750;SDS011;37579;51.074;17.004;2022-11-15T12:44:16;13.63;;;9.23;;
39750;SDS011;37579;51.074;17.004;2022-11-15T13:17:39;10.95;;;8.63;;
39750;SDS011;37579;51.074;17.004;2022-11-15T13:22:40;10.93;;;8.20;;
39750;SDS011;37579;51.074;17.004;2022-11-15T13:30:56;8.82;;;7.40;;
39750;SDS011;37579;51.074;17.004;2022-11-15T13:33:25;9.80;;;7.35;;
39750;SDS011;37579;51.074;17.004;2022-11-15T13:36:18;9.90;;;7.65;;
39750;SDS011;37579;51.074;17.004;2022-11-15T13:39:33;9.45;;;7.15;;
39750;SDS011;37579;51.074;17.004;2022-11-15T13:41:52;8.95;;;7.35;;
39750;SDS011;37579;51.074;17.004;2022-11-15T13:44:19;7.90;;;7.05;;
39750;SDS011;37579;51.074;17.004;2022-11-15T13:47:06;10.15;;;6.93;;
39750;SDS011;37579;51.074;17.004;2022-11-15T13:49:39;9.27;;;6.80;;
39750;SDS011;37579;51.074;17.004;2022-11-15T13:52:07;10.13;;;6.97;;
39750;SDS011;37579;51.074;17.004;2022-11-15T13:55:38;9.70;;;7.55;;
39750;SDS011;37579;51.074;17.004;2022-11-15T14:02:55;9.20;;;6.70;;
39750;SDS011;37579;51.074;17.004;2022-11-15T14:05:23;19.50;;;13.82;;
39750;SDS011;37579;51.074;17.004;2022-11-15T14:08:00;20.02;;;14.60;;
39750;SDS011;37579;51.074;17.004;2022-11-15T14:10:48;20.65;;;14.18;;
39750;SDS011;37579;51.074;17.004;2022-11-15T14:14:02;24.15;;;13.77;;
39750;SDS011;37579;51.074;17.004;2022-11-15T14:16:33;14.48;;;11.63;;
39750;SDS011;37579;51.074;17.004;2022-11-15T14:19:02;14.68;;;11.05;;
39750;SDS011;37579;51.074;17.004;2022-11-15T14:21:28;15.27;;;10.63;;
39750;SDS011;37579;51.074;17.004;2022-11-15T14:26:39;11.95;;;9.90;;
39750;SDS011;37579;51.074;17.004;2022-11-15T14:29:22;15.55;;;9.20;;
39750;SDS011;37579;51.074;17.004;2022-11-15T14:31:48;12.45;;;9.13;;
39750;SDS011;37579;51.074;17.004;2022-11-15T14:34:13;12.85;;;8.38;;
39750;SDS011;37579;51.074;17.004;2022-11-15T14:36:39;13.05;;;9.27;;
39750;SDS011;37579;51.074;17.004;2022-11-15T14:39:05;13.07;;;8.70;;
39750;SDS011;37579;51.074;17.004;2022-11-15T14:41:33;14.52;;;9.00;;
39750;SDS011;37579;51.074;17.004;2022-11-15T14:44:03;13.05;;;8.55;;
39750;SDS011;37579;51.074;17.004;2022-11-15T14:46:29;12.68;;;9.13;;
39750;SDS011;37579;51.074;17.004;2022-11-15T14:48:55;15.23;;;9.00;;
39750;SDS011;37579;51.074;17.004;2022-11-15T14:51:21;12.43;;;8.82;;
39750;SDS011;37579;51.074;17.004;2022-11-15T14:53:47;11.68;;;7.85;;
39750;SDS011;37579;51.074;17.004;2022-11-15T14:56:13;12.60;;;8.02;;
39750;SDS011;37579;51.074;17.004;2022-11-15T14:58:39;11.50;;;8.23;;
39750;SDS011;37579;51.074;17.004;2022-11-15T15:01:10;12.43;;;7.65;;
39750;SDS011;37579;51.074;17.004;2022-11-15T15:06:17;11.40;;;7.70;;
39750;SDS011;37579;51.074;17.004;2022-11-15T15:08:43;12.80;;;7.95;;
39750;SDS011;37579;51.074;17.004;2022-11-15T15:11:13;15.30;;;8.20;;
39750;SDS011;37579;51.074;17.004;2022-11-15T15:13:42;14.70;;;8.65;;
39750;SDS011;37579;51.074;17.004;2022-11-15T15:16:08;11.88;;;7.90;;
39750;SDS011;37579;51.074;17.004;2022-11-15T15:18:34;11.05;;;8.07;;
39750;SDS011;37579;51.074;17.004;2022-11-15T15:20:59;14.18;;;7.88;;
39750;SDS011;37579;51.074;17.004;2022-11-15T15:23:32;8.73;;;7.70;;
39750;SDS011;37579;51.074;17.004;2022-11-15T15:25:58;13.48;;;7.93;;
39750;SDS011;37579;51.074;17.004;2022-11-15T15:28:24;11.20;;;7.63;;
39750;SDS011;37579;51.074;17.004;2022-11-15T15:30:49;9.80;;;7.63;;
39750;SDS011;37579;51.074;17.004;2022-11-15T15:33:15;10.35;;;7.30;;
39750;SDS011;37579;51.074;17.004;2022-11-15T15:35:41;10.45;;;8.07;;
39750;SDS011;37579;51.074;17.004;2022-11-15T15:38:13;11.85;;;8.00;;
39750;SDS011;37579;51.074;17.004;2022-11-15T15:40:40;12.82;;;8.20;;
39750;SDS011;37579;51.074;17.004;2022-11-15T15:43:06;10.23;;;7.80;;
39750;SDS011;37579;51.074;17.004;2022-11-15T15:45:34;8.48;;;7.15;;
39750;SDS011;37579;51.074;17.004;2022-11-15T15:48:03;10.13;;;7.40;;
39750;SDS011;37579;51.074;17.004;2022-11-15T15:50:31;10.85;;;7.45;;
39750;SDS011;37579;51.074;17.004;2022-11-15T15:52:58;9.30;;;7.22;;
39750;SDS011;37579;51.074;17.004;2022-11-15T15:55:25;8.20;;;6.72;;
39750;SDS011;37579;51.074;17.004;2022-11-15T15:57:52;8.50;;;7.35;;
39750;SDS011;37579;51.074;17.004;2022-11-15T16:00:18;8.98;;;6.68;;
39750;SDS011;37579;51.074;17.004;2022-11-15T16:02:45;10.55;;;7.03;;
39750;SDS011;37579;51.074;17.004;2022-11-15T16:05:12;9.90;;;6.65;;
39750;SDS011;37579;51.074;17.004;2022-11-15T16:07:38;8.10;;;6.78;;
39750;SDS011;37579;51.074;17.004;2022-11-15T16:12:50;8.27;;;6.63;;
39750;SDS011;37579;51.074;17.004;2022-11-15T16:15:17;7.75;;;6.63;;
39750;SDS011;37579;51.074;17.004;2022-11-15T16:18:04;10.25;;;6.55;;
39750;SDS011;37579;51.074;17.004;2022-11-15T16:23:05;9.48;;;7.18;;
39750;SDS011;37579;51.074;17.004;2022-11-15T16:31:08;9.82;;;6.97;;
39750;SDS011;37579;51.074;17.004;2022-11-15T16:33:35;11.63;;;8.60;;
39750;SDS011;37579;51.074;17.004;2022-11-15T16:36:02;10.57;;;8.43;;
39750;SDS011;37579;51.074;17.004;2022-11-15T16:38:29;13.80;;;8.48;;
39750;SDS011;37579;51.074;17.004;2022-11-15T16:40:55;10.07;;;7.93;;
39750;SDS011;37579;51.074;17.004;2022-11-15T16:43:21;11.43;;;7.75;;
39750;SDS011;37579;51.074;17.004;2022-11-15T16:45:46;12.05;;;7.88;;
39750;SDS011;37579;51.074;17.004;2022-11-15T16:48:26;15.10;;;7.45;;
39750;SDS011;37579;51.074;17.004;2022-11-15T16:50:56;12.63;;;7.57;;
39750;SDS011;37579;51.074;17.004;2022-11-15T16:53:26;10.65;;;7.20;;
39750;SDS011;37579;51.074;17.004;2022-11-15T16:55:52;12.00;;;7.43;;
39750;SDS011;37579;51.074;17.004;2022-11-15T16:58:19;12.95;;;7.35;;
39750;SDS011;37579;51.074;17.004;2022-11-15T17:00:45;11.35;;;7.07;;
39750;SDS011;37579;51.074;17.004;2022-11-15T17:03:16;10.00;;;6.80;;
39750;SDS011;37579;51.074;17.004;2022-11-15T17:05:41;11.30;;;6.60;;
39750;SDS011;37579;51.074;17.004;2022-11-15T17:08:07;9.88;;;7.15;;
39750;SDS011;37579;51.074;17.004;2022-11-15T17:10:33;10.45;;;6.47;;
39750;SDS011;37579;51.074;17.004;2022-11-15T17:12:58;12.07;;;7.38;;
39750;SDS011;37579;51.074;17.004;2022-11-15T17:15:24;9.85;;;6.53;;
39750;SDS011;37579;51.074;17.004;2022-11-15T17:17:51;8.63;;;6.10;;
39750;SDS011;37579;51.074;17.004;2022-11-15T17:20:18;10.45;;;6.68;;
39750;SDS011;37579;51.074;17.004;2022-11-15T17:22:45;8.77;;;6.15;;
39750;SDS011;37579;51.074;17.004;2022-11-15T17:25:11;8.52;;;6.90;;
39750;SDS011;37579;51.074;17.004;2022-11-15T17:27:37;9.43;;;6.82;;
39750;SDS011;37579;51.074;17.004;2022-11-15T17:30:03;9.40;;;6.43;;
39750;SDS011;37579;51.074;17.004;2022-11-15T17:32:31;10.38;;;6.53;;
39750;SDS011;37579;51.074;17.004;2022-11-15T17:34:56;8.45;;;6.80;;
39750;SDS011;37579;51.074;17.004;2022-11-15T17:37:22;7.57;;;6.07;;
39750;SDS011;37579;51.074;17.004;2022-11-15T17:39:48;10.57;;;6.30;;
39750;SDS011;37579;51.074;17.004;2022-11-15T17:42:14;9.32;;;6.40;;
39750;SDS011;37579;51.074;17.004;2022-11-15T17:44:39;7.50;;;6.10;;
39750;SDS011;37579;51.074;17.004;2022-11-15T17:47:05;7.80;;;5.80;;
39750;SDS011;37579;51.074;17.004;2022-11-15T17:49:32;8.80;;;6.50;;
39750;SDS011;37579;51.074;17.004;2022-11-15T17:52:02;7.95;;;5.70;;
39750;SDS011;37579;51.074;17.004;2022-11-15T17:54:28;9.13;;;6.00;;
39750;SDS011;37579;51.074;17.004;2022-11-15T17:56:53;9.50;;;5.93;;
39750;SDS011;37579;51.074;17.004;2022-11-15T17:59:19;8.77;;;6.00;;
39750;SDS011;37579;51.074;17.004;2022-11-15T18:01:45;8.35;;;6.22;;
39750;SDS011;37579;51.074;17.004;2022-11-15T18:04:10;8.48;;;6.43;;
39750;SDS011;37579;51.074;17.004;2022-11-15T18:06:39;8.98;;;6.20;;
39750;SDS011;37579;51.074;17.004;2022-11-15T18:09:04;7.90;;;5.75;;
39750;SDS011;37579;51.074;17.004;2022-11-15T18:16:34;11.93;;;6.38;;
39750;SDS011;37579;51.074;17.004;2022-11-15T18:19:00;11.88;;;6.65;;
39750;SDS011;37579;51.074;17.004;2022-11-15T18:21:32;9.85;;;6.40;;